createdAt,value
2022-12-15T00:02:19.776Z,12.38
2022-12-15T00:05:06.370Z,12.27
2022-12-15T00:07:52.647Z,12.55
2022-12-15T00:10:38.393Z,11.95
2022-12-15T00:13:31.702Z,13.07
2022-12-15T00:16:17.996Z,12.05
2022-12-15T00:19:03.541Z,12.18
2022-12-15T00:21:49.559Z,12.68
2022-12-15T00:24:35.673Z,12.23
2022-12-15T00:27:21.415Z,12.10
2022-12-15T00:30:06.829Z,12.98
2022-12-15T00:32:52.097Z,12.55
2022-12-15T00:35:37.722Z,12.30
2022-12-15T00:38:41.362Z,13.23
2022-12-15T00:41:08.767Z,11.68
2022-12-15T00:43:36.919Z,13.65
2022-12-15T00:46:22.900Z,13.55
2022-12-15T00:48:50.241Z,13.38
2022-12-15T00:51:17.727Z,13.23
2022-12-15T00:54:04.374Z,11.52
2022-12-15T00:56:50.412Z,12.68
2022-12-15T00:59:36.357Z,12.18
2022-12-15T01:02:22.910Z,12.00
2022-12-15T01:05:08.968Z,12.35
2022-12-15T01:07:55.125Z,12.60
2022-12-15T01:10:40.389Z,12.60
2022-12-15T01:13:26.624Z,13.05
2022-12-15T01:16:12.896Z,11.55
2022-12-15T01:18:58.488Z,11.90
2022-12-15T01:21:25.602Z,12.98
2022-12-15T01:23:53.223Z,12.35
2022-12-15T01:26:20.416Z,12.50
2022-12-15T01:28:47.336Z,13.27
2022-12-15T01:31:14.967Z,14.10
2022-12-15T01:33:43.836Z,13.23
2022-12-15T01:36:11.059Z,13.38
2022-12-15T01:38:38.298Z,13.95
2022-12-15T01:41:08.177Z,13.70
2022-12-15T01:43:37.948Z,13.45
2022-12-15T01:46:05.338Z,13.57
2022-12-15T01:49:03.026Z,14.93
2022-12-15T01:51:35.588Z,10.75
2022-12-15T01:54:02.883Z,14.27
2022-12-15T01:56:37.909Z,14.60
2022-12-15T01:59:09.118Z,15.05
2022-12-15T02:01:36.139Z,13.15
2022-12-15T02:04:03.412Z,14.27
2022-12-15T02:06:30.756Z,13.88
2022-12-15T02:08:59.646Z,14.90
2022-12-15T02:11:42.967Z,14.20
2022-12-15T02:14:11.940Z,15.95
2022-12-15T02:16:47.939Z,14.73
2022-12-15T02:19:35.021Z,14.65
2022-12-15T02:22:14.423Z,15.30
2022-12-15T02:24:52.919Z,14.80
2022-12-15T02:27:39.556Z,14.88
2022-12-15T02:30:17.630Z,15.48
2022-12-15T02:32:55.198Z,15.98
2022-12-15T02:35:29.210Z,14.80
2022-12-15T02:37:56.085Z,14.40
2022-12-15T02:40:23.383Z,14.57
2022-12-15T02:42:54.646Z,14.52
2022-12-15T02:45:35.739Z,16.35
2022-12-15T02:48:34.490Z,15.32
2022-12-15T02:51:24.231Z,15.10
2022-12-15T02:54:09.992Z,15.20
2022-12-15T02:57:15.446Z,15.63
2022-12-15T02:59:57.039Z,16.27
2022-12-15T03:02:28.700Z,15.57
2022-12-15T03:04:56.711Z,17.02
2022-12-15T03:07:27.974Z,15.05
2022-12-15T03:09:56.981Z,16.80
2022-12-15T03:12:23.945Z,15.85
2022-12-15T03:14:51.042Z,16.20
2022-12-15T03:17:17.943Z,16.20
2022-12-15T03:19:45.198Z,15.32
2022-12-15T03:22:12.510Z,14.65
2022-12-15T03:24:39.819Z,15.25
2022-12-15T03:27:07.106Z,16.00
2022-12-15T03:29:34.358Z,15.98
2022-12-15T03:32:01.299Z,15.40
2022-12-15T03:34:28.193Z,15.70
2022-12-15T03:36:55.032Z,15.40
2022-12-15T03:39:22.309Z,15.38
2022-12-15T03:41:49.667Z,15.48
2022-12-15T03:44:16.961Z,14.10
2022-12-15T03:46:43.980Z,14.13
2022-12-15T03:49:10.884Z,14.25
2022-12-15T03:51:37.873Z,14.85
2022-12-15T03:54:04.787Z,14.23
2022-12-15T03:56:32.557Z,13.90
2022-12-15T03:58:59.399Z,14.45
2022-12-15T04:01:31.420Z,13.80
2022-12-15T04:04:01.220Z,14.85
2022-12-15T04:06:29.585Z,14.70
2022-12-15T04:08:56.476Z,14.38
2022-12-15T04:11:23.335Z,14.32
2022-12-15T04:13:50.716Z,15.07
2022-12-15T04:16:20.136Z,15.55
2022-12-15T04:19:07.899Z,15.82
2022-12-15T04:21:34.782Z,15.27
2022-12-15T04:24:20.383Z,15.30
2022-12-15T04:27:05.787Z,15.05
2022-12-15T04:29:51.753Z,14.68
2022-12-15T04:32:37.879Z,14.70
2022-12-15T04:35:23.856Z,16.10
2022-12-15T04:38:09.587Z,15.25
2022-12-15T04:40:55.317Z,15.18
2022-12-15T04:43:40.956Z,17.58
2022-12-15T04:46:27.202Z,16.98
2022-12-15T04:49:12.858Z,16.90
2022-12-15T04:51:58.808Z,16.40
2022-12-15T04:54:44.587Z,17.48
2022-12-15T04:57:30.623Z,17.42
2022-12-15T05:00:16.373Z,18.20
2022-12-15T05:03:01.730Z,17.95
2022-12-15T05:05:47.246Z,17.92
2022-12-15T05:08:33.096Z,16.58
2022-12-15T05:11:19.323Z,17.40
2022-12-15T05:14:05.047Z,17.98
2022-12-15T05:16:50.477Z,19.92
2022-12-15T05:19:36.613Z,18.58
2022-12-15T05:22:21.865Z,20.60
2022-12-15T05:25:07.465Z,19.88
2022-12-15T05:27:52.933Z,18.67
2022-12-15T05:30:38.857Z,19.35
2022-12-15T05:33:06.065Z,20.45
2022-12-15T05:35:33.374Z,20.55
2022-12-15T05:38:00.633Z,18.42
2022-12-15T05:40:27.593Z,18.65
2022-12-15T05:42:59.229Z,18.77
2022-12-15T05:45:26.940Z,18.42
2022-12-15T05:47:54.676Z,19.48
2022-12-15T05:50:22.634Z,19.73
2022-12-15T05:52:52.516Z,19.92
2022-12-15T05:55:19.905Z,19.52
2022-12-15T05:57:55.930Z,19.27
2022-12-15T06:00:23.169Z,18.55
2022-12-15T06:02:50.271Z,20.05
2022-12-15T06:05:18.027Z,19.23
2022-12-15T06:07:44.913Z,18.75
2022-12-15T06:10:12.380Z,20.08
2022-12-15T06:12:39.286Z,19.73
2022-12-15T06:15:06.564Z,20.60
2022-12-15T06:17:33.541Z,20.27
2022-12-15T06:20:00.503Z,19.05
2022-12-15T06:22:29.167Z,19.23
2022-12-15T06:24:56.056Z,19.23
2022-12-15T06:27:22.941Z,19.33
2022-12-15T06:29:50.229Z,19.85
2022-12-15T06:32:17.142Z,18.85
2022-12-15T06:34:44.145Z,17.95
2022-12-15T06:37:11.159Z,19.15
2022-12-15T06:39:38.458Z,17.83
2022-12-15T06:42:05.743Z,17.13
2022-12-15T06:44:32.670Z,14.45
2022-12-15T06:47:00.050Z,15.55
2022-12-15T06:49:27.005Z,16.63
2022-12-15T06:51:53.956Z,16.45
2022-12-15T06:54:20.905Z,15.93
2022-12-15T06:56:49.839Z,17.95
2022-12-15T06:59:17.326Z,17.35
2022-12-15T07:01:44.806Z,18.58
2022-12-15T07:04:12.253Z,18.33
2022-12-15T07:06:39.994Z,17.87
2022-12-15T07:09:11.069Z,17.07
2022-12-15T07:11:37.973Z,17.63
2022-12-15T07:14:05.126Z,19.02
2022-12-15T07:16:32.791Z,17.70
2022-12-15T07:19:00.093Z,17.33
2022-12-15T07:21:27.256Z,18.88
2022-12-15T07:23:56.283Z,17.63
2022-12-15T07:26:24.613Z,15.95
2022-12-15T07:28:52.976Z,16.40
2022-12-15T07:33:48.740Z,15.27
2022-12-15T07:36:16.400Z,15.20
2022-12-15T07:38:49.987Z,16.83
2022-12-15T07:41:18.565Z,16.38
2022-12-15T07:43:47.206Z,17.92
2022-12-15T07:46:14.467Z,16.60
2022-12-15T07:48:41.941Z,17.30
2022-12-15T07:51:17.082Z,19.20
2022-12-15T07:53:46.969Z,19.38
2022-12-15T07:56:14.142Z,20.00
2022-12-15T07:58:42.129Z,18.75
2022-12-15T08:01:12.488Z,18.77
2022-12-15T08:03:40.605Z,17.70
2022-12-15T08:08:37.449Z,16.15
2022-12-15T08:11:12.684Z,16.27
2022-12-15T08:16:29.241Z,15.02
2022-12-15T08:18:58.841Z,14.57
2022-12-15T08:21:25.936Z,12.75
2022-12-15T08:23:52.904Z,13.30
2022-12-15T08:26:25.230Z,13.15
2022-12-15T08:29:11.853Z,13.73
2022-12-15T08:31:45.074Z,11.93
2022-12-15T08:34:12.173Z,13.23
2022-12-15T08:36:39.144Z,12.68
2022-12-15T08:39:08.451Z,12.60
2022-12-15T08:41:35.388Z,12.82
2022-12-15T08:44:04.167Z,12.20
2022-12-15T08:46:34.308Z,13.17
2022-12-15T08:49:03.131Z,11.38
2022-12-15T08:51:31.798Z,12.13
2022-12-15T08:54:00.294Z,11.85
2022-12-15T08:58:57.746Z,11.75
2022-12-15T09:01:26.604Z,11.63
2022-12-15T09:03:55.505Z,11.00
2022-12-15T09:06:30.719Z,11.02
2022-12-15T09:08:59.582Z,12.15
2022-12-15T09:11:27.977Z,12.18
2022-12-15T09:13:55.483Z,13.38
2022-12-15T09:16:22.979Z,12.13
2022-12-15T09:18:54.086Z,15.10
2022-12-15T09:21:23.345Z,12.68
2022-12-15T09:23:52.166Z,12.52
2022-12-15T09:26:20.752Z,12.35
2022-12-15T09:28:50.757Z,13.18
2022-12-15T09:31:23.527Z,11.68
2022-12-15T09:33:52.731Z,11.80
2022-12-15T09:36:20.199Z,13.43
2022-12-15T09:38:47.283Z,13.27
2022-12-15T09:41:14.905Z,11.65
2022-12-15T09:43:47.400Z,10.83
2022-12-15T09:46:24.193Z,12.18
2022-12-15T09:48:53.756Z,10.88
2022-12-15T09:51:25.350Z,10.38
2022-12-15T09:53:55.223Z,11.80
2022-12-15T09:56:32.834Z,11.13
2022-12-15T09:59:22.643Z,12.45
2022-12-15T10:02:00.399Z,10.90
2022-12-15T10:05:12.311Z,10.65
2022-12-15T10:07:46.421Z,13.20
2022-12-15T10:10:38.932Z,11.80
2022-12-15T10:13:17.899Z,12.20
